createdAt,value
2018-04-26T00:01:24.985Z,63.10
2018-04-26T00:03:54.187Z,64.00
2018-04-26T00:06:24.246Z,62.20
2018-04-26T00:08:53.862Z,62.10
2018-04-26T00:11:23.055Z,62.10
2018-04-26T00:13:52.304Z,61.40
2018-04-26T00:16:22.314Z,61.80
2018-04-26T00:18:52.295Z,62.20
2018-04-26T00:21:22.388Z,61.80
2018-04-26T00:23:51.687Z,61.80
2018-04-26T00:26:21.052Z,61.50
2018-04-26T00:28:51.078Z,63.50
2018-04-26T00:31:21.044Z,65.40
2018-04-26T00:33:50.253Z,65.40
2018-04-26T00:36:20.352Z,65.80
2018-04-26T00:38:49.528Z,65.80
2018-04-26T00:41:18.825Z,66.60
2018-04-26T00:43:48.070Z,66.40
2018-04-26T00:46:17.457Z,66.80
2018-04-26T00:48:52.362Z,66.80
2018-04-26T00:51:33.262Z,66.70
2018-04-26T00:54:02.549Z,67.00
2018-04-26T00:56:31.784Z,67.50
2018-04-26T00:59:01.106Z,68.30
2018-04-26T01:01:31.146Z,69.90
2018-04-26T01:04:07.691Z,70.70
2018-04-26T01:06:37.745Z,71.80
2018-04-26T01:09:07.095Z,71.80
2018-04-26T01:11:37.163Z,72.80
2018-04-26T01:14:06.452Z,72.70
2018-04-26T01:16:35.852Z,72.90
2018-04-26T01:19:05.203Z,73.40
2018-04-26T01:21:38.488Z,73.60
2018-04-26T01:24:07.876Z,73.60
2018-04-26T01:26:37.202Z,73.40
2018-04-26T01:29:06.607Z,73.40
2018-04-26T01:31:36.626Z,73.90
2018-04-26T01:34:07.165Z,73.70
2018-04-26T01:36:48.314Z,74.00
2018-04-26T01:39:21.643Z,74.20
2018-04-26T01:41:54.798Z,74.60
2018-04-26T01:44:24.048Z,74.40
2018-04-26T01:46:53.345Z,74.60
2018-04-26T01:49:22.644Z,74.80
2018-04-26T01:52:17.047Z,75.10
2018-04-26T01:54:46.261Z,75.40
2018-04-26T01:57:15.406Z,75.70
2018-04-26T01:59:44.597Z,75.80
2018-04-26T02:02:13.766Z,75.90
2018-04-26T02:04:43.031Z,76.00
2018-04-26T02:07:12.308Z,75.80
2018-04-26T02:09:41.600Z,76.00
2018-04-26T02:12:10.873Z,76.00
2018-04-26T02:14:40.239Z,76.20
2018-04-26T02:17:10.460Z,76.20
2018-04-26T02:19:39.984Z,76.20
2018-04-26T02:22:10.177Z,76.60
2018-04-26T02:24:39.426Z,76.60
2018-04-26T02:27:08.647Z,76.80
2018-04-26T02:29:37.889Z,77.20
2018-04-26T02:32:10.109Z,77.30
2018-04-26T02:34:40.143Z,77.90
2018-04-26T02:37:09.292Z,77.90
2018-04-26T02:39:38.521Z,78.30
2018-04-26T02:42:08.244Z,78.20
2018-04-26T02:44:38.425Z,78.70
2018-04-26T02:47:07.487Z,78.70
2018-04-26T02:49:48.960Z,78.70
2018-04-26T02:52:18.410Z,78.80
2018-04-26T02:54:47.636Z,78.80
2018-04-26T02:57:17.008Z,78.70
2018-04-26T02:59:46.511Z,78.70
2018-04-26T03:02:15.684Z,78.60
2018-04-26T03:04:44.930Z,78.40
2018-04-26T03:07:14.217Z,78.60
2018-04-26T03:09:44.472Z,78.80
2018-04-26T03:12:13.735Z,78.70
2018-04-26T03:14:42.972Z,79.40
2018-04-26T03:17:12.258Z,78.00
2018-04-26T03:19:41.533Z,77.90
2018-04-26T03:22:10.788Z,77.70
2018-04-26T03:24:40.059Z,77.80
2018-04-26T03:27:10.143Z,78.30
2018-04-26T03:29:39.531Z,77.40
2018-04-26T03:32:08.747Z,76.90
2018-04-26T03:34:38.065Z,76.90
2018-04-26T03:37:07.252Z,77.20
2018-04-26T03:39:36.521Z,76.90
2018-04-26T03:42:05.767Z,77.00
2018-04-26T03:44:35.023Z,75.90
2018-04-26T03:47:04.224Z,75.70
2018-04-26T03:49:33.595Z,74.20
2018-04-26T03:52:02.786Z,71.80
2018-04-26T03:54:32.804Z,72.40
2018-04-26T03:57:02.013Z,72.30
2018-04-26T03:59:31.247Z,71.60
2018-04-26T04:02:12.424Z,71.80
2018-04-26T04:05:03.274Z,71.50
2018-04-26T04:07:33.274Z,72.20
2018-04-26T04:10:02.578Z,72.20
2018-04-26T04:12:33.711Z,72.60
2018-04-26T04:15:02.975Z,73.30
2018-04-26T04:17:32.269Z,73.60
2018-04-26T04:20:01.621Z,73.10
2018-04-26T04:22:30.908Z,74.00
2018-04-26T04:25:00.997Z,72.90
2018-04-26T04:27:30.401Z,72.80
2018-04-26T04:29:59.652Z,72.80
2018-04-26T04:32:29.752Z,63.70
2018-04-26T04:35:00.202Z,63.50
2018-04-26T04:37:29.642Z,64.40
2018-04-26T04:39:58.931Z,63.90
2018-04-26T04:42:28.207Z,64.30
2018-04-26T04:44:57.621Z,62.40
2018-04-26T04:47:26.988Z,60.90
2018-04-26T04:49:56.251Z,60.70
2018-04-26T04:52:25.638Z,61.10
2018-04-26T04:55:09.805Z,60.40
2018-04-26T04:57:39.022Z,59.80
2018-04-26T05:00:08.240Z,58.50
2018-04-26T05:02:38.309Z,57.80
2018-04-26T05:05:07.539Z,57.80
2018-04-26T05:07:36.721Z,57.20
2018-04-26T05:10:05.973Z,57.10
2018-04-26T05:12:36.027Z,57.10
2018-04-26T05:15:05.451Z,57.10
2018-04-26T05:17:34.785Z,57.70
2018-04-26T05:20:04.054Z,57.80
2018-04-26T05:22:33.365Z,57.50
2018-04-26T05:25:02.732Z,57.60
2018-04-26T05:27:32.796Z,57.80
2018-04-26T05:30:02.163Z,57.80
2018-04-26T05:32:31.317Z,57.50
2018-04-26T05:35:01.491Z,57.80
2018-04-26T05:37:30.846Z,58.10
2018-04-26T05:40:00.911Z,59.10
2018-04-26T05:42:30.128Z,58.60
2018-04-26T05:45:00.160Z,60.10
2018-04-26T05:47:30.215Z,59.00
2018-04-26T05:49:59.445Z,59.00
2018-04-26T05:52:29.181Z,59.00
2018-04-26T05:54:58.561Z,58.30
2018-04-26T05:57:27.786Z,56.60
2018-04-26T05:59:56.943Z,56.00
2018-04-26T06:02:26.253Z,55.40
2018-04-26T06:04:55.654Z,54.70
2018-04-26T06:07:24.990Z,55.60
2018-04-26T06:09:54.529Z,55.90
2018-04-26T06:12:24.478Z,55.80
2018-04-26T06:14:53.877Z,55.80
2018-04-26T06:17:23.081Z,55.90
2018-04-26T06:19:52.395Z,56.80
2018-04-26T06:22:25.057Z,55.80
2018-04-26T06:24:54.305Z,56.70
2018-04-26T06:27:23.540Z,54.80
2018-04-26T06:29:52.696Z,54.60
2018-04-26T06:32:22.708Z,55.10
2018-04-26T06:34:51.948Z,55.10
2018-04-26T06:37:21.165Z,54.30
2018-04-26T06:39:50.379Z,54.30
2018-04-26T06:42:19.677Z,54.40
2018-04-26T06:44:48.871Z,54.20
2018-04-26T06:47:18.053Z,54.20
2018-04-26T06:49:47.270Z,54.60
2018-04-26T06:52:16.647Z,54.90
2018-04-26T06:54:46.060Z,55.60
2018-04-26T06:57:15.239Z,56.80
2018-04-26T06:59:44.769Z,56.50
2018-04-26T07:02:13.968Z,57.00
2018-04-26T07:04:43.267Z,57.80
2018-04-26T07:07:12.481Z,58.60
2018-04-26T07:09:41.950Z,57.60
2018-04-26T07:12:11.163Z,55.20
2018-04-26T07:14:41.120Z,55.00
2018-04-26T07:17:10.385Z,55.00
2018-04-26T07:19:39.604Z,53.90
2018-04-26T07:22:08.789Z,52.10
2018-04-26T07:24:38.893Z,51.30
2018-04-26T07:27:08.205Z,51.30
2018-04-26T07:29:37.493Z,49.10
2018-04-26T07:32:06.688Z,50.50
2018-04-26T07:34:35.936Z,49.50
2018-04-26T07:37:05.293Z,48.70
2018-04-26T07:39:34.520Z,45.90
2018-04-26T07:42:03.681Z,46.50
2018-04-26T07:44:32.849Z,45.60
2018-04-26T07:47:02.288Z,45.10
2018-04-26T07:49:31.472Z,45.30
2018-04-26T07:52:00.886Z,45.20
2018-04-26T07:54:30.041Z,45.40
2018-04-26T07:56:59.281Z,45.00
2018-04-26T07:59:28.580Z,45.20
2018-04-26T08:01:57.814Z,45.40
2018-04-26T08:04:27.000Z,47.20
2018-04-26T08:06:56.184Z,47.30
2018-04-26T08:09:25.412Z,47.20
2018-04-26T08:11:55.106Z,47.60
2018-04-26T08:14:25.169Z,45.60
2018-04-26T08:16:55.108Z,45.30
2018-04-26T08:19:24.524Z,45.30
2018-04-26T08:21:53.704Z,44.80
2018-04-26T08:24:24.048Z,44.30
2018-04-26T08:26:53.350Z,43.60
2018-04-26T08:29:22.646Z,43.30
2018-04-26T08:31:51.854Z,43.10
2018-04-26T08:34:21.022Z,43.50
2018-04-26T08:36:50.489Z,44.40
2018-04-26T08:39:19.653Z,43.20
2018-04-26T08:41:48.861Z,42.90
2018-04-26T08:44:18.060Z,43.60
2018-04-26T08:46:47.443Z,43.80
2018-04-26T08:49:16.638Z,45.00
2018-04-26T08:51:45.824Z,45.40
2018-04-26T08:54:15.135Z,45.60
2018-04-26T08:56:44.433Z,44.50
2018-04-26T08:59:13.734Z,44.50
2018-04-26T09:01:42.887Z,45.90
2018-04-26T09:04:12.832Z,44.70
2018-04-26T09:06:42.093Z,44.70
2018-04-26T09:09:11.320Z,43.90
2018-04-26T09:11:40.669Z,42.90
2018-04-26T09:14:09.892Z,43.60
2018-04-26T09:16:40.346Z,44.60
2018-04-26T09:19:09.667Z,45.60
2018-04-26T09:21:38.973Z,45.00
2018-04-26T09:24:08.229Z,45.30
2018-04-26T09:26:37.593Z,45.70
2018-04-26T09:29:06.770Z,46.00
2018-04-26T09:31:36.004Z,46.10
2018-04-26T09:34:05.375Z,49.00
2018-04-26T09:36:34.571Z,52.20
2018-04-26T09:39:03.778Z,67.60
2018-04-26T09:41:34.299Z,72.20
2018-04-26T09:44:03.473Z,81.50
2018-04-26T09:46:32.794Z,87.60
2018-04-26T09:49:02.089Z,90.60
2018-04-26T09:51:31.604Z,88.10
2018-04-26T09:54:00.780Z,89.60
2018-04-26T09:56:29.964Z,86.20
2018-04-26T09:58:59.187Z,87.80
2018-04-26T10:01:28.365Z,89.80
2018-04-26T10:04:03.282Z,89.00
2018-04-26T10:06:33.292Z,84.00
2018-04-26T10:09:02.482Z,84.00
2018-04-26T10:11:32.509Z,77.50
2018-04-26T10:14:01.721Z,77.50
2018-04-26T10:16:30.948Z,83.20
2018-04-26T10:19:00.244Z,76.70
2018-04-26T10:21:29.646Z,78.90
2018-04-26T10:23:58.822Z,72.90
2018-04-26T10:26:28.502Z,65.80
2018-04-26T10:28:57.664Z,64.30
2018-04-26T10:31:26.947Z,67.80
2018-04-26T10:33:56.247Z,67.30
2018-04-26T10:36:25.427Z,64.50
2018-04-26T10:38:54.598Z,60.50
2018-04-26T10:41:24.047Z,57.80
2018-04-26T10:43:53.338Z,57.70
2018-04-26T10:46:22.643Z,56.40
2018-04-26T10:48:51.841Z,54.00
2018-04-26T10:51:21.048Z,51.70
2018-04-26T10:53:50.342Z,49.30
2018-04-26T10:56:19.529Z,47.90
2018-04-26T10:58:48.943Z,45.20
2018-04-26T11:01:18.144Z,44.30
2018-04-26T11:03:47.368Z,40.00
2018-04-26T11:06:16.571Z,39.60
2018-04-26T11:08:45.840Z,40.60
2018-04-26T11:11:15.038Z,39.70
2018-04-26T11:13:44.188Z,37.70
2018-04-26T11:16:13.358Z,39.60
2018-04-26T11:18:42.471Z,39.60
2018-04-26T11:21:11.780Z,38.10
2018-04-26T11:23:41.739Z,39.00
2018-04-26T11:26:10.941Z,39.00
2018-04-26T11:28:40.189Z,39.00
2018-04-26T11:31:10.162Z,41.80
2018-04-26T11:33:39.296Z,41.70
2018-04-26T11:36:09.325Z,38.80
2018-04-26T11:38:38.523Z,38.20
2018-04-26T11:41:07.838Z,36.90
2018-04-26T11:43:37.280Z,37.30
2018-04-26T11:46:07.419Z,36.80
2018-04-26T11:48:36.569Z,36.90
2018-04-26T11:51:05.896Z,35.50
2018-04-26T11:53:35.981Z,35.50
2018-04-26T11:56:05.278Z,35.50
2018-04-26T11:58:34.665Z,37.10
2018-04-26T12:01:08.071Z,36.60
2018-04-26T12:03:37.400Z,36.60
2018-04-26T12:06:06.694Z,37.80
2018-04-26T12:08:35.976Z,39.60
2018-04-26T12:11:05.212Z,41.60
2018-04-26T12:13:34.467Z,41.30
2018-04-26T12:16:03.737Z,43.80
2018-04-26T12:18:33.049Z,41.30
2018-04-26T12:21:03.061Z,37.50
2018-04-26T12:23:32.278Z,37.60
2018-04-26T12:26:01.576Z,39.70
2018-04-26T12:28:31.001Z,36.40
2018-04-26T12:31:00.281Z,35.50
2018-04-26T12:33:29.646Z,34.70
2018-04-26T12:35:58.887Z,36.10
2018-04-26T12:38:28.130Z,35.30
2018-04-26T12:40:57.428Z,36.20
2018-04-26T12:43:26.685Z,35.80
2018-04-26T12:45:56.043Z,35.60
2018-04-26T12:48:25.381Z,36.40
2018-04-26T12:50:54.831Z,36.60
2018-04-26T12:53:24.246Z,36.20
2018-04-26T12:55:53.557Z,36.00
2018-04-26T12:58:23.608Z,36.10
2018-04-26T13:00:53.868Z,34.40
2018-04-26T13:03:23.064Z,34.30
2018-04-26T13:05:52.367Z,33.00
2018-04-26T13:08:21.627Z,31.70
2018-04-26T13:10:51.789Z,31.40
2018-04-26T13:13:21.908Z,31.40
2018-04-26T13:15:51.084Z,32.30
2018-04-26T13:18:20.307Z,33.00
2018-04-26T13:20:49.605Z,32.00
2018-04-26T13:23:18.921Z,32.00
2018-04-26T13:25:48.139Z,34.40
2018-04-26T13:28:18.112Z,32.90
2018-04-26T13:30:47.257Z,32.90
2018-04-26T13:33:20.504Z,33.00
2018-04-26T13:35:49.806Z,33.10
2018-04-26T13:38:20.011Z,31.90
2018-04-26T13:40:49.185Z,32.90
2018-04-26T13:43:18.946Z,33.00
2018-04-26T13:45:48.131Z,33.00
2018-04-26T13:48:19.078Z,30.20
2018-04-26T13:50:48.255Z,30.20
2018-04-26T13:53:17.477Z,30.20
2018-04-26T13:55:46.631Z,30.10
2018-04-26T13:58:15.910Z,30.20
2018-04-26T14:00:46.048Z,30.50
2018-04-26T14:03:15.248Z,30.50
2018-04-26T14:05:44.479Z,30.90
2018-04-26T14:08:13.771Z,32.40
2018-04-26T14:10:42.973Z,32.00
2018-04-26T14:13:12.157Z,32.70
2018-04-26T14:15:41.481Z,32.40
2018-04-26T14:18:11.218Z,32.10
2018-04-26T14:20:40.529Z,31.20
2018-04-26T14:23:09.899Z,31.00
2018-04-26T14:25:38.993Z,30.60
2018-04-26T14:28:08.197Z,32.50
2018-04-26T14:30:37.418Z,30.40
2018-04-26T14:33:11.685Z,32.00
2018-04-26T14:35:40.995Z,31.80
2018-04-26T14:38:10.221Z,32.10
2018-04-26T14:40:39.539Z,31.80
2018-04-26T14:43:08.756Z,30.40
2018-04-26T14:45:38.083Z,31.10
2018-04-26T14:48:07.934Z,30.00
2018-04-26T14:50:37.120Z,31.60
2018-04-26T14:53:06.484Z,30.60
2018-04-26T14:55:36.728Z,31.10
2018-04-26T14:58:06.031Z,31.10
2018-04-26T15:00:35.260Z,31.90
2018-04-26T15:03:04.516Z,32.40
2018-04-26T15:05:33.829Z,32.70
2018-04-26T15:08:03.235Z,31.70
2018-04-26T15:10:32.467Z,31.50
2018-04-26T15:13:01.624Z,32.40
2018-04-26T15:15:30.859Z,33.10
2018-04-26T15:18:00.052Z,31.80
2018-04-26T15:20:29.209Z,31.90
2018-04-26T15:22:58.412Z,30.70
2018-04-26T15:25:27.662Z,31.70
2018-04-26T15:27:59.885Z,30.50
2018-04-26T15:30:29.054Z,32.60
2018-04-26T15:32:58.273Z,31.50
2018-04-26T15:35:27.481Z,31.40
2018-04-26T15:37:56.669Z,30.80
2018-04-26T15:40:25.988Z,30.10
2018-04-26T15:42:55.200Z,30.00
2018-04-26T15:45:24.401Z,30.80
2018-04-26T15:47:53.721Z,30.10
2018-04-26T15:50:47.748Z,31.80
2018-04-26T15:53:28.936Z,31.30
2018-04-26T15:56:09.884Z,31.90
2018-04-26T15:59:03.770Z,30.70
2018-04-26T16:04:58.177Z,31.00
2018-04-26T16:07:54.621Z,31.50
2018-04-26T16:10:41.363Z,32.20
2018-04-26T16:13:24.832Z,32.70
2018-04-26T16:16:12.464Z,34.30
2018-04-26T16:18:53.457Z,33.70
2018-04-26T16:21:34.999Z,33.10
2018-04-26T16:24:21.769Z,31.60
2018-04-26T16:27:11.472Z,32.00
2018-04-26T16:29:52.450Z,32.00
2018-04-26T16:32:38.197Z,33.50
2018-04-26T16:35:21.407Z,34.20
2018-04-26T16:38:09.069Z,35.30
2018-04-26T16:40:38.256Z,35.20
2018-04-26T16:43:07.498Z,35.20
2018-04-26T16:45:36.968Z,36.20
2018-04-26T16:48:06.756Z,35.90
2018-04-26T16:50:36.719Z,35.50
2018-04-26T16:53:06.407Z,36.00
2018-04-26T16:55:35.803Z,35.30
2018-04-26T16:58:05.112Z,36.60
2018-04-26T17:00:37.007Z,36.20
2018-04-26T17:03:21.990Z,37.00
2018-04-26T17:05:53.153Z,37.00
2018-04-26T17:08:24.711Z,36.70
2018-04-26T17:10:54.849Z,36.70
2018-04-26T17:13:29.352Z,36.90
2018-04-26T17:16:02.259Z,34.30
2018-04-26T17:18:31.654Z,34.30
2018-04-26T17:21:01.130Z,34.10
2018-04-26T17:23:30.740Z,34.30
2018-04-26T17:26:00.487Z,34.70
2018-04-26T17:28:29.626Z,35.70
2018-04-26T17:31:00.518Z,34.80
2018-04-26T17:33:29.848Z,33.80
2018-04-26T17:35:59.246Z,32.90
2018-04-26T17:38:28.829Z,31.50
2018-04-26T17:40:58.144Z,31.00
2018-04-26T17:43:27.363Z,31.00
2018-04-26T17:45:57.357Z,30.90
2018-04-26T17:48:26.862Z,30.90
2018-04-26T17:50:56.982Z,31.20
2018-04-26T17:53:26.273Z,31.20
2018-04-26T17:55:55.517Z,31.10
2018-04-26T17:58:25.595Z,30.70
2018-04-26T18:00:54.910Z,30.70
2018-04-26T18:03:24.926Z,33.00
2018-04-26T18:06:01.373Z,33.80
2018-04-26T18:08:30.568Z,33.80
2018-04-26T18:11:00.637Z,35.40
2018-04-26T18:13:29.840Z,36.30
2018-04-26T18:15:59.187Z,37.20
2018-04-26T18:18:28.460Z,37.60
2018-04-26T18:20:57.649Z,38.30
2018-04-26T18:23:27.701Z,39.60
2018-04-26T18:25:57.849Z,39.60
2018-04-26T18:28:27.217Z,40.90
2018-04-26T18:30:56.422Z,41.00
2018-04-26T18:33:25.723Z,41.90
2018-04-26T18:35:55.004Z,42.40
2018-04-26T18:38:25.015Z,43.20
2018-04-26T18:40:54.590Z,43.20
2018-04-26T18:43:24.711Z,44.10
2018-04-26T18:45:54.115Z,44.10
2018-04-26T18:48:24.056Z,45.60
2018-04-26T18:50:53.220Z,45.50
2018-04-26T18:53:23.179Z,45.10
2018-04-26T18:55:52.362Z,45.10
2018-04-26T18:58:21.641Z,45.30
2018-04-26T19:00:50.798Z,45.90
2018-04-26T19:03:20.755Z,46.00
2018-04-26T19:05:50.101Z,46.70
2018-04-26T19:08:19.388Z,47.60
2018-04-26T19:10:48.553Z,47.40
2018-04-26T19:13:17.694Z,47.70
2018-04-26T19:15:46.867Z,48.30
2018-04-26T19:18:20.581Z,49.50
2018-04-26T19:20:49.741Z,49.60
2018-04-26T19:23:18.903Z,50.20
2018-04-26T19:25:48.160Z,50.10
2018-04-26T19:28:17.336Z,50.10
2018-04-26T19:30:50.911Z,50.40
2018-04-26T19:33:21.314Z,50.30
2018-04-26T19:35:50.615Z,51.10
2018-04-26T19:38:19.792Z,51.20
2018-04-26T19:40:48.989Z,51.40
2018-04-26T19:43:18.196Z,51.60
2018-04-26T19:45:47.428Z,51.90
2018-04-26T19:48:20.491Z,52.00
2018-04-26T19:50:49.929Z,52.60
2018-04-26T19:53:19.145Z,52.80
2018-04-26T19:55:48.449Z,53.10
2018-04-26T19:58:18.512Z,54.40
2018-04-26T20:00:47.794Z,54.40
2018-04-26T20:03:20.874Z,55.40
2018-04-26T20:05:50.107Z,55.30
2018-04-26T20:08:19.349Z,56.00
2018-04-26T20:10:49.405Z,59.30
2018-04-26T20:13:18.554Z,59.30
2018-04-26T20:15:47.731Z,61.20
2018-04-26T20:18:16.909Z,63.00
2018-04-26T20:20:46.247Z,64.50
2018-04-26T20:23:15.411Z,64.40
2018-04-26T20:25:44.815Z,66.20
2018-04-26T20:28:14.112Z,66.90
2018-04-26T20:30:43.397Z,68.00
2018-04-26T20:33:12.707Z,68.30
2018-04-26T20:35:41.937Z,68.80
2018-04-26T20:38:14.823Z,69.00
2018-04-26T20:40:44.011Z,69.20
2018-04-26T20:43:16.370Z,70.00
2018-04-26T20:45:45.568Z,70.40
2018-04-26T20:48:32.530Z,70.00
2018-04-26T20:51:02.512Z,70.60
2018-04-26T20:53:31.687Z,70.60
2018-04-26T20:56:00.695Z,70.90
2018-04-26T20:58:29.826Z,71.70
2018-04-26T21:00:59.814Z,72.50
2018-04-26T21:03:29.041Z,72.50
2018-04-26T21:05:58.281Z,73.40
2018-04-26T21:08:27.520Z,73.60
2018-04-26T21:10:56.705Z,73.80
2018-04-26T21:13:25.949Z,74.00
2018-04-26T21:15:55.089Z,74.60
2018-04-26T21:18:24.243Z,74.90
2018-04-26T21:20:54.244Z,75.80
2018-04-26T21:23:24.223Z,76.00
2018-04-26T21:25:53.452Z,75.80
2018-04-26T21:28:23.464Z,76.10
2018-04-26T21:30:52.637Z,76.00
2018-04-26T21:33:21.815Z,76.00
2018-04-26T21:35:51.246Z,75.70
2018-04-26T21:38:20.438Z,75.90
2018-04-26T21:40:49.717Z,75.30
2018-04-26T21:43:18.941Z,75.80
2018-04-26T21:45:48.108Z,76.00
2018-04-26T21:48:20.267Z,76.30
2018-04-26T21:50:55.055Z,76.60
2018-04-26T21:53:30.575Z,78.00
2018-04-26T21:56:05.442Z,78.00
2018-04-26T21:58:40.922Z,78.60
2018-04-26T22:01:15.831Z,78.30
2018-04-26T22:03:46.926Z,78.70
2018-04-26T22:06:16.157Z,79.00
2018-04-26T22:08:45.409Z,80.00
2018-04-26T22:11:14.659Z,79.60
2018-04-26T22:13:43.837Z,80.30
2018-04-26T22:16:13.915Z,79.70
2018-04-26T22:18:43.102Z,80.00
2018-04-26T22:21:13.013Z,81.20
2018-04-26T22:23:42.206Z,81.20
2018-04-26T22:26:12.172Z,82.90
2018-04-26T22:28:41.362Z,82.20
2018-04-26T22:31:10.569Z,83.30
2018-04-26T22:33:39.749Z,82.00
2018-04-26T22:36:09.815Z,82.10
2018-04-26T22:38:39.160Z,81.40
2018-04-26T22:41:08.348Z,81.60
2018-04-26T22:43:37.542Z,82.00
2018-04-26T22:46:07.512Z,82.50
2018-04-26T22:48:36.664Z,82.50
2018-04-26T22:51:05.870Z,82.40
2018-04-26T22:53:35.099Z,83.30
2018-04-26T22:56:05.098Z,83.00
2018-04-26T22:58:34.264Z,82.90
2018-04-26T23:01:03.457Z,82.30
2018-04-26T23:03:32.674Z,84.20
2018-04-26T23:06:01.859Z,83.20
2018-04-26T23:08:31.100Z,83.30
2018-04-26T23:11:00.287Z,84.20
2018-04-26T23:13:30.460Z,84.40
2018-04-26T23:15:59.648Z,84.50
2018-04-26T23:18:29.604Z,85.10
2018-04-26T23:20:58.791Z,85.10
2018-04-26T23:23:28.005Z,84.80
2018-04-26T23:25:57.253Z,84.70
2018-04-26T23:28:26.477Z,85.90
2018-04-26T23:30:55.711Z,85.40
2018-04-26T23:33:24.904Z,85.30
2018-04-26T23:35:54.121Z,86.10
2018-04-26T23:38:23.315Z,86.00
2018-04-26T23:40:52.525Z,85.60
2018-04-26T23:43:21.697Z,86.10
2018-04-26T23:45:50.965Z,86.30
2018-04-26T23:48:20.119Z,85.50
2018-04-26T23:50:50.069Z,87.00
2018-04-26T23:53:19.378Z,86.30
2018-04-26T23:55:48.701Z,85.50
2018-04-26T23:58:17.993Z,85.70
